createdAt,value
2022-11-16T00:16:49.783Z,11.12
2022-11-16T00:45:55.747Z,11.08
2022-11-16T01:15:00.462Z,11.07
2022-11-16T01:44:03.565Z,11.04
2022-11-16T02:13:04.148Z,10.96
2022-11-16T02:42:04.349Z,11.07
2022-11-16T03:11:09.284Z,11.09
2022-11-16T03:40:10.267Z,11.1
2022-11-16T04:09:08.682Z,11.26
2022-11-16T04:38:14.408Z,10.97
2022-11-16T05:07:16.899Z,11.19
2022-11-16T05:36:13.571Z,11.11
2022-11-16T06:05:14.924Z,11.06
2022-11-16T06:34:05.948Z,10.93
2022-11-16T07:02:53.405Z,10.98
2022-11-16T07:31:54.676Z,11.17
2022-11-16T08:00:55.280Z,11.32
2022-11-16T08:29:48.655Z,12.6
2022-11-16T08:58:59.861Z,13.59
2022-11-16T09:27:24.981Z,13.06
2022-11-16T09:56:24.407Z,13.3
2022-11-16T10:25:20.554Z,13.17
2022-11-16T10:54:16.585Z,13.29
2022-11-16T11:23:17.146Z,13.45
2022-11-16T11:52:16.820Z,14.07
2022-11-16T12:21:14.574Z,13.72
2022-11-16T12:50:13.657Z,14.01
2022-11-16T13:19:15.858Z,13.88
2022-11-16T13:48:12.701Z,13.54
2022-11-16T14:17:07.872Z,13.42
2022-11-16T14:46:03.705Z,13.47
2022-11-16T15:15:02.066Z,12.85
2022-11-16T15:44:13.853Z,12.38
2022-11-16T16:12:13.859Z,12.04
2022-11-16T16:41:09.075Z,11.82
2022-11-16T17:10:03.450Z,11.69
2022-11-16T17:38:45.413Z,11.41
2022-11-16T18:07:28.561Z,11.18
2022-11-16T18:36:06.214Z,10.84
2022-11-16T19:04:51.952Z,10.63
2022-11-16T19:33:38.777Z,10.43
2022-11-16T20:02:11.222Z,10.45
2022-11-16T21:05:17.725Z,10.15
2022-11-16T21:34:11.563Z,10.17
2022-11-16T22:03:06.954Z,10.24
2022-11-16T22:32:06.696Z,10.48
2022-11-16T23:00:58.140Z,10.58
2022-11-16T23:29:51.966Z,10.57
2022-11-16T23:58:47.323Z,10.41
